createdAt,value
2023-03-22T00:00:00.504Z,1.95
2023-03-22T00:02:27.791Z,2.08
2023-03-22T00:04:55.170Z,1.98
2023-03-22T00:07:22.325Z,1.40
2023-03-22T00:09:49.568Z,1.60
2023-03-22T00:12:16.744Z,1.83
2023-03-22T00:14:44.020Z,1.73
2023-03-22T00:17:11.712Z,2.17
2023-03-22T00:19:42.055Z,1.60
2023-03-22T00:22:09.309Z,1.73
2023-03-22T00:24:37.396Z,2.08
2023-03-22T00:27:04.675Z,2.20
2023-03-22T00:29:31.849Z,1.77
2023-03-22T00:31:59.089Z,1.20
2023-03-22T00:34:27.029Z,2.28
2023-03-22T00:36:56.247Z,2.20
2023-03-22T00:39:23.575Z,1.42
2023-03-22T00:41:51.460Z,1.85
2023-03-22T00:44:19.486Z,1.73
2023-03-22T00:46:46.646Z,1.88
2023-03-22T00:49:14.582Z,2.30
2023-03-22T00:51:41.787Z,2.40
2023-03-22T00:54:09.135Z,2.45
2023-03-22T00:56:37.609Z,1.97
2023-03-22T00:59:14.147Z,2.33
2023-03-22T01:01:43.711Z,1.85
2023-03-22T01:04:15.424Z,2.00
2023-03-22T01:06:42.632Z,2.20
2023-03-22T01:09:14.707Z,1.60
2023-03-22T01:11:43.336Z,1.70
2023-03-22T01:14:13.641Z,2.33
2023-03-22T01:16:40.929Z,1.98
2023-03-22T01:19:08.498Z,2.00
2023-03-22T01:21:35.875Z,2.33
2023-03-22T01:24:03.739Z,1.63
2023-03-22T01:26:31.202Z,2.30
2023-03-22T01:28:58.462Z,1.65
2023-03-22T01:31:25.743Z,2.28
2023-03-22T01:33:53.028Z,2.30
2023-03-22T01:36:22.673Z,2.05
2023-03-22T01:38:50.023Z,2.20
2023-03-22T01:41:17.927Z,2.38
2023-03-22T01:43:45.874Z,2.65
2023-03-22T01:46:13.318Z,2.70
2023-03-22T01:48:46.041Z,2.20
2023-03-22T01:51:18.545Z,2.05
2023-03-22T01:54:18.095Z,2.08
2023-03-22T01:56:45.974Z,2.33
2023-03-22T01:59:20.989Z,2.20
2023-03-22T02:02:07.662Z,2.40
2023-03-22T02:04:39.134Z,2.22
2023-03-22T02:07:15.529Z,2.45
2023-03-22T02:09:46.003Z,2.95
2023-03-22T02:12:26.013Z,2.50
2023-03-22T02:15:12.186Z,2.60
2023-03-22T02:18:45.427Z,2.83
2023-03-22T02:21:27.926Z,2.28
2023-03-22T02:24:17.806Z,2.42
2023-03-22T02:27:04.923Z,1.90
2023-03-22T02:29:38.073Z,2.42
2023-03-22T02:32:46.933Z,2.03
2023-03-22T02:35:37.281Z,1.90
2023-03-22T02:38:22.823Z,1.88
2023-03-22T02:41:08.647Z,2.20
2023-03-22T02:43:38.453Z,2.55
2023-03-22T02:46:17.787Z,2.50
2023-03-22T02:48:59.459Z,2.05
2023-03-22T02:51:36.740Z,2.50
2023-03-22T02:54:13.882Z,1.97
2023-03-22T02:56:48.104Z,2.45
2023-03-22T02:59:19.135Z,2.50
2023-03-22T03:01:52.534Z,2.67
2023-03-22T03:04:23.916Z,3.03
2023-03-22T03:06:54.131Z,3.33
2023-03-22T03:09:21.682Z,2.85
2023-03-22T03:11:51.887Z,3.17
2023-03-22T03:14:30.824Z,3.65
2023-03-22T03:17:04.443Z,2.67
2023-03-22T03:19:56.112Z,3.30
2023-03-22T03:22:36.826Z,3.53
2023-03-22T03:25:21.565Z,2.85
2023-03-22T03:28:02.465Z,3.03
2023-03-22T03:30:56.878Z,4.20
2023-03-22T03:33:27.674Z,3.53
2023-03-22T03:36:01.905Z,3.92
2023-03-22T03:38:36.113Z,4.28
2023-03-22T03:41:21.984Z,3.58
2023-03-22T03:43:51.381Z,5.10
2023-03-22T03:46:18.732Z,4.07
2023-03-22T03:48:49.555Z,4.50
2023-03-22T03:51:16.766Z,4.47
2023-03-22T03:53:44.384Z,4.93
2023-03-22T03:56:11.806Z,4.93
2023-03-22T03:58:44.032Z,4.10
2023-03-22T04:01:11.801Z,4.68
2023-03-22T04:03:57.475Z,5.53
2023-03-22T04:06:38.731Z,5.18
2023-03-22T04:09:10.521Z,3.78
2023-03-22T04:11:42.205Z,6.10
2023-03-22T04:14:09.514Z,4.97
2023-03-22T04:16:37.054Z,5.13
2023-03-22T04:19:05.103Z,6.35
2023-03-22T04:21:32.613Z,5.57
2023-03-22T04:24:03.527Z,5.97
2023-03-22T04:26:35.818Z,6.70
2023-03-22T04:29:19.228Z,6.05
2023-03-22T04:31:52.973Z,6.13
2023-03-22T04:34:23.808Z,5.28
2023-03-22T04:37:02.364Z,5.90
2023-03-22T04:39:55.567Z,6.10
2023-03-22T04:42:31.066Z,5.38
2023-03-22T04:45:07.039Z,6.78
2023-03-22T04:47:35.129Z,7.07
2023-03-22T04:50:07.560Z,5.93
2023-03-22T04:52:41.035Z,7.15
2023-03-22T04:55:08.554Z,6.68
2023-03-22T04:57:36.149Z,7.10
2023-03-22T05:00:08.322Z,7.32
2023-03-22T05:02:41.118Z,6.53
2023-03-22T05:05:13.205Z,7.47
2023-03-22T05:07:41.451Z,7.72
2023-03-22T05:10:10.340Z,6.07
2023-03-22T05:12:37.765Z,7.05
2023-03-22T05:15:21.595Z,5.93
2023-03-22T05:17:50.885Z,6.25
2023-03-22T05:20:18.200Z,5.72
2023-03-22T05:22:51.226Z,6.35
2023-03-22T05:25:20.203Z,5.93
2023-03-22T05:27:50.093Z,7.10
2023-03-22T05:30:37.342Z,6.28
2023-03-22T05:33:31.816Z,6.15
2023-03-22T05:35:59.101Z,5.95
2023-03-22T05:38:29.239Z,6.93
2023-03-22T05:40:59.710Z,5.63
2023-03-22T05:43:28.418Z,5.45
2023-03-22T05:45:55.769Z,6.03
2023-03-22T05:48:43.517Z,5.60
2023-03-22T05:51:19.365Z,5.03
2023-03-22T05:53:51.516Z,4.80
2023-03-22T05:56:24.294Z,4.28
2023-03-22T05:58:54.682Z,4.47
2023-03-22T06:01:23.129Z,4.00
2023-03-22T06:04:08.663Z,4.55
2023-03-22T06:06:48.439Z,4.10
2023-03-22T06:09:31.092Z,4.40
2023-03-22T06:11:59.416Z,4.35
2023-03-22T06:14:29.006Z,4.57
2023-03-22T06:17:12.193Z,4.28
2023-03-22T06:19:40.413Z,4.17
2023-03-22T06:22:08.882Z,3.53
2023-03-22T06:24:40.459Z,4.03
2023-03-22T06:27:09.740Z,3.00
2023-03-22T06:29:39.757Z,3.70
2023-03-22T06:32:08.444Z,3.73
2023-03-22T06:34:35.903Z,3.17
2023-03-22T06:37:04.217Z,3.35
2023-03-22T06:39:34.694Z,3.05
2023-03-22T06:42:01.949Z,3.05
2023-03-22T06:44:29.422Z,2.70
2023-03-22T06:47:07.678Z,2.70
2023-03-22T06:50:04.191Z,2.47
2023-03-22T06:52:54.051Z,1.77
2023-03-22T06:55:21.383Z,2.22
2023-03-22T06:57:48.575Z,2.53
2023-03-22T07:00:16.550Z,2.40
2023-03-22T07:02:43.852Z,3.35
2023-03-22T07:05:20.426Z,2.28
2023-03-22T07:07:47.611Z,2.78
2023-03-22T07:10:14.788Z,2.00
2023-03-22T07:12:42.010Z,2.33
2023-03-22T07:15:13.130Z,2.25
2023-03-22T07:17:51.705Z,2.38
2023-03-22T07:20:20.159Z,2.25
2023-03-22T07:22:50.808Z,2.00
2023-03-22T07:25:20.271Z,2.13
2023-03-22T07:27:50.848Z,1.90
2023-03-22T07:30:18.293Z,2.47
2023-03-22T07:32:46.991Z,2.13
2023-03-22T07:35:16.655Z,2.20
2023-03-22T07:37:44.226Z,2.55
2023-03-22T07:40:20.170Z,2.30
2023-03-22T07:42:51.208Z,2.00
2023-03-22T07:45:31.522Z,2.05
2023-03-22T07:48:38.985Z,1.83
2023-03-22T07:51:32.658Z,1.77
2023-03-22T07:54:01.413Z,1.70
2023-03-22T07:56:28.815Z,1.85
2023-03-22T07:58:56.249Z,2.33
2023-03-22T08:01:24.629Z,2.00
2023-03-22T08:04:07.543Z,2.13
2023-03-22T08:06:43.813Z,2.28
2023-03-22T08:09:11.556Z,2.15
2023-03-22T08:11:38.726Z,1.77
2023-03-22T08:14:06.368Z,2.27
2023-03-22T08:16:38.273Z,2.25
2023-03-22T08:19:06.074Z,2.17
2023-03-22T08:21:37.364Z,2.45
2023-03-22T08:24:07.532Z,2.35
2023-03-22T08:26:53.956Z,2.57
2023-03-22T08:29:31.789Z,1.75
2023-03-22T08:32:02.179Z,2.33
2023-03-22T08:34:31.279Z,2.03
2023-03-22T08:36:58.750Z,2.10
2023-03-22T08:39:26.247Z,2.07
2023-03-22T08:42:05.993Z,1.80
2023-03-22T08:44:33.210Z,2.20
2023-03-22T08:47:03.274Z,2.03
2023-03-22T08:49:31.468Z,2.08
2023-03-22T08:52:07.330Z,2.10
2023-03-22T08:54:42.918Z,3.08
2023-03-22T08:57:29.451Z,2.05
2023-03-22T09:00:19.698Z,2.30
2023-03-22T09:03:07.119Z,2.35
2023-03-22T09:05:34.359Z,1.90
2023-03-22T09:08:06.304Z,2.53
2023-03-22T09:10:40.248Z,1.83
2023-03-22T09:13:09.987Z,2.38
2023-03-22T09:15:38.654Z,2.47
2023-03-22T09:18:15.198Z,1.70
2023-03-22T09:20:45.691Z,2.28
2023-03-22T09:23:17.395Z,2.30
2023-03-22T09:25:48.484Z,2.20
2023-03-22T09:28:19.728Z,3.10
2023-03-22T09:30:47.088Z,2.93
2023-03-22T09:33:16.576Z,2.30
2023-03-22T09:35:47.657Z,2.92
2023-03-22T09:38:16.066Z,2.40
2023-03-22T09:41:02.173Z,3.00
2023-03-22T09:43:48.435Z,2.67
2023-03-22T09:46:22.708Z,2.58
2023-03-22T09:48:51.277Z,3.05
2023-03-22T09:51:40.976Z,2.50
2023-03-22T09:54:21.531Z,2.60
2023-03-22T09:57:08.394Z,2.57
2023-03-22T09:59:56.957Z,2.45
2023-03-22T10:03:01.947Z,2.63
2023-03-22T10:05:40.373Z,2.63
2023-03-22T10:08:41.505Z,3.05
2023-03-22T10:11:24.952Z,3.03
2023-03-22T10:14:08.634Z,2.47
2023-03-22T10:16:36.065Z,2.55
2023-03-22T10:19:31.108Z,2.13
2023-03-22T10:22:02.107Z,3.17
2023-03-22T10:24:33.761Z,3.03
2023-03-22T10:27:02.516Z,2.78
2023-03-22T10:29:42.078Z,3.28
2023-03-22T10:32:14.349Z,3.22
2023-03-22T10:34:43.381Z,3.40
2023-03-22T10:37:17.976Z,3.23
2023-03-22T10:39:49.793Z,3.00
2023-03-22T10:42:21.721Z,2.70
2023-03-22T10:44:59.248Z,2.92
2023-03-22T10:47:50.177Z,3.42
2023-03-22T10:50:28.686Z,2.80
2023-03-22T10:53:17.865Z,2.55
2023-03-22T10:55:45.276Z,2.40
2023-03-22T10:58:20.383Z,2.42
2023-03-22T11:00:53.214Z,2.28
2023-03-22T11:03:28.514Z,2.73
2023-03-22T11:06:10.927Z,2.53
2023-03-22T11:08:49.316Z,2.83
2023-03-22T11:11:53.146Z,2.10
2023-03-22T11:14:23.313Z,3.15
2023-03-22T11:16:56.018Z,2.63
2023-03-22T11:19:31.743Z,3.53
2023-03-22T11:22:00.656Z,2.80
2023-03-22T11:24:30.668Z,2.75
2023-03-22T11:27:24.109Z,2.88
2023-03-22T11:29:54.185Z,2.77
2023-03-22T11:32:25.715Z,2.35
2023-03-22T11:35:20.492Z,2.70
2023-03-22T11:37:50.489Z,2.03
2023-03-22T11:40:23.769Z,2.45
2023-03-22T11:43:22.539Z,2.20
2023-03-22T11:45:55.198Z,2.80
2023-03-22T11:48:27.020Z,2.30
2023-03-22T11:50:59.272Z,2.28
2023-03-22T11:53:28.112Z,2.55
2023-03-22T11:55:57.570Z,2.20
2023-03-22T11:58:42.760Z,2.45
2023-03-22T12:01:27.629Z,2.67
2023-03-22T12:03:57.149Z,2.40
2023-03-22T12:06:26.888Z,2.72
2023-03-22T12:09:25.695Z,2.70
2023-03-22T12:11:57.171Z,3.13
2023-03-22T12:14:29.478Z,2.75
2023-03-22T12:17:05.968Z,3.17
2023-03-22T12:19:55.080Z,2.50
2023-03-22T12:22:32.587Z,2.40
2023-03-22T12:25:03.437Z,3.00
2023-03-22T12:27:37.663Z,2.58
2023-03-22T12:30:12.762Z,2.92
2023-03-22T12:32:47.607Z,2.92
2023-03-22T12:35:20.692Z,3.00
2023-03-22T12:37:52.138Z,2.75
2023-03-22T12:40:28.775Z,2.75
2023-03-22T12:43:08.227Z,3.08
2023-03-22T12:45:47.636Z,2.85
2023-03-22T12:48:36.689Z,3.00
2023-03-22T12:51:10.903Z,2.67
2023-03-22T12:53:43.034Z,2.60
2023-03-22T12:56:18.526Z,2.50
2023-03-22T12:58:56.290Z,3.72
2023-03-22T13:01:57.725Z,2.90
2023-03-22T13:04:49.088Z,2.95
2023-03-22T13:07:31.625Z,3.42
2023-03-22T13:10:00.292Z,3.38
2023-03-22T13:12:31.685Z,3.25
2023-03-22T13:15:40.450Z,3.83
2023-03-22T13:18:40.017Z,3.55
2023-03-22T13:21:22.696Z,2.90
2023-03-22T13:23:57.685Z,3.60
2023-03-22T13:26:34.897Z,4.32
2023-03-22T13:29:10.654Z,3.23
2023-03-22T13:31:45.067Z,3.25
2023-03-22T13:34:19.640Z,3.33
2023-03-22T13:36:54.881Z,3.30
2023-03-22T13:39:25.283Z,3.70
2023-03-22T13:42:17.891Z,3.50
2023-03-22T13:44:46.877Z,3.35
2023-03-22T13:47:40.445Z,3.83
2023-03-22T13:50:14.505Z,2.83
2023-03-22T13:52:52.767Z,3.40
2023-03-22T13:55:54.068Z,3.43
2023-03-22T13:58:30.918Z,3.35
2023-03-22T14:00:58.563Z,3.67
2023-03-22T14:03:32.779Z,3.28
2023-03-22T14:06:18.824Z,3.53
2023-03-22T14:08:48.481Z,3.33
2023-03-22T14:11:29.177Z,3.20
2023-03-22T14:14:12.995Z,3.53
2023-03-22T14:16:48.337Z,3.80
2023-03-22T14:19:29.021Z,3.10
